Flight Track Log - Related Links

Times and Time Zones

All times are in EDT time to prevent confusion due to time zone crossing. See the SWA1392 flight status page for this flight to view local times or setup timezone preferences in your user account.

Time Position Orientation Groundspeed Altitude Reporting Facility
EDT Latitude Longitude Course Direction KTS MPH feet Rate Location/Type
Sat 08:17:19 PM 33.4333 -112.0333 270° West 171 197 2,000  Level Phoenix TRACON
Sat 08:18:13 PM 33.4333 -112.1000 270° West 207 238 3,500 1,897 Climbing Phoenix TRACON
Sat 08:19:16 PM 33.4381 -112.1589 276° West 218 251 5,700 2,160 Climbing Albuquerque Center
Sat 08:20:18 PM 33.4981 -112.1842 341° North 285 328 8,000 2,780 Climbing Albuquerque Center
Sat 08:21:19 PM 33.5244 -112.0975 70° East 290 334 11,400 3,443 Climbing Albuquerque Center
Sat 08:22:20 PM 33.5442 -112.0033 76° East 292 336 15,000 3,024 Climbing Albuquerque Center
Sat 08:23:22 PM 33.5675 -111.8836 77° East 310 357 17,600 2,341 Climbing Albuquerque Center
Sat 08:24:23 PM 33.5911 -111.7636 77° East 368 423 19,800 2,244 Climbing Albuquerque Center
Sat 08:25:25 PM 33.6172 -111.6389 76° East 387 445 22,200 2,341 Climbing Albuquerque Center
Sat 08:26:26 PM 33.6414 -111.5072 78° East 405 466 24,600 2,410 Climbing Albuquerque Center
Sat 08:27:27 PM 33.6675 -111.3764 76° East 408 470 27,100 2,098 Climbing Albuquerque Center
Sat 08:28:29 PM 33.6978 -111.2392 75° East 415 478 28,900 1,707 Climbing Albuquerque Center
Sat 08:29:30 PM 33.7528 -111.0864 67° East 430 495 30,600 1,623 Climbing Albuquerque Center
Sat 08:30:31 PM 33.7997 -110.9519 67° East 438 504 32,200 1,415 Climbing Albuquerque Center
Sat 08:31:33 PM 33.8483 -110.8169 67° East 441 507 33,500 1,317 Climbing Albuquerque Center
Sat 08:32:34 PM 33.8964 -110.6778 67° East 448 516 34,900 1,426 Climbing Albuquerque Center
Sat 08:33:35 PM 33.9447 -110.5408 67° East 449 517 36,400 1,230 Climbing Albuquerque Center
Sat 08:34:36 PM 33.9986 -110.3886 67° East 448 516 37,400 927 Climbing Albuquerque Center
Sat 08:35:38 PM 34.0478 -110.2486 67° East 453 521 38,300 780 Climbing Albuquerque Center
Sat 08:36:39 PM 34.0972 -110.1053 67° East 461 531 39,000 344 Climbing Albuquerque Center
Sat 08:37:40 PM 34.1467 -109.9614 67° East 462 532 39,000  Level Albuquerque Center
Sat 08:38:41 PM 34.2006 -109.8036 68° East 458 527 39,000  Level Albuquerque Center
Sat 08:39:43 PM 34.2475 -109.6675 67° East 459 528 39,000  Level Albuquerque Center
Sat 08:40:44 PM 34.2936 -109.5319 68° East 458 527 39,000  Level Albuquerque Center
Sat 08:41:45 PM 34.3469 -109.3753 68° East 454 522 39,000  Level Albuquerque Center
Sat 08:42:46 PM 34.3925 -109.2383 68° East 456 525 39,000  Level Albuquerque Center
Sat 08:43:47 PM 34.4433 -109.0792 69° East 455 524 39,000  Level Albuquerque Center
Sat 08:44:49 PM 34.4808 -108.9389 72° East 456 525 39,000  Level Albuquerque Center
Sat 08:45:50 PM 34.5192 -108.8000 71° East 456 525 39,000  Level Albuquerque Center
Sat 08:46:51 PM 34.5647 -108.6378 71° East 456 525 39,000  Level Albuquerque Center
Sat 08:47:52 PM 34.6031 -108.4967 72° East 458 527 39,000  Level Albuquerque Center
Sat 08:48:53 PM 34.6436 -108.3475 72° East 457 526 39,000  Level Albuquerque Center
Sat 08:49:55 PM 34.6833 -108.2011 72° East 457 526 39,000  Level Albuquerque Center
Sat 08:50:56 PM 34.7222 -108.0533 72° East 459 528 39,000  Level Albuquerque Center
Sat 08:51:57 PM 34.7664 -107.8886 72° East 459 528 39,000  Level Albuquerque Center
Sat 08:52:58 PM 34.8003 -107.7583 72° East 460 529 39,000  Level Albuquerque Center
Sat 08:53:59 PM 34.8383 -107.6122 72° East 456 525 39,000  Level Albuquerque Center
Sat 08:55:01 PM 34.8772 -107.4664 72° East 454 522 39,000  Level Albuquerque Center
Sat 08:56:02 PM 34.9150 -107.3197 73° East 456 525 39,000  Level Albuquerque Center
Sat 08:57:03 PM 34.9619 -107.1411 72° East 455 524 39,000  Level Albuquerque Center
Sat 08:58:04 PM 34.9975 -107.0025 73° East 450 518 39,000  Level Albuquerque Center
Sat 08:59:05 PM 35.0322 -106.8639 73° East 447 514 39,000  Level Albuquerque Center
Sat 09:00:06 PM 35.0847 -106.7092 67° East 445 512 39,000  Level Albuquerque Center
Sat 09:01:07 PM 35.1367 -106.5750 65° Northeast 454 522 39,000  Level Albuquerque Center
Sat 09:02:09 PM 35.1811 -106.4483 67° East 453 521 39,000  Level Albuquerque Center
Sat 09:03:10 PM 35.2417 -106.2839 66° East 446 513 39,000  Level Albuquerque Center
Sat 09:04:11 PM 35.2919 -106.1431 66° East 438 504 39,000  Level Albuquerque Center
Sat 09:05:12 PM 35.3444 -106.0036 65° Northeast 444 511 39,000  Level Albuquerque Center
Sat 09:06:13 PM 35.3978 -105.8622 65° Northeast 453 521 39,000  Level Albuquerque Center
Sat 09:07:14 PM 35.4492 -105.7219 66° East 450 518 39,000  Level Albuquerque Center
Sat 09:08:15 PM 35.4994 -105.5800 66° East 450 518 39,000  Level Albuquerque Center
Sat 09:09:16 PM 35.5486 -105.4400 67° East 445 512 39,000  Level Albuquerque Center
Sat 09:10:17 PM 35.5986 -105.2978 67° East 447 514 39,000  Level Albuquerque Center
Sat 09:11:18 PM 35.6489 -105.1556 66° East 449 517 39,000  Level Albuquerque Center
Sat 09:12:20 PM 35.7158 -105.0258 58° Northeast 442 509 39,000  Level Albuquerque Center
Sat 09:13:21 PM 35.7867 -104.8975 56° Northeast 443 510 39,000  Level Albuquerque Center
Sat 09:14:22 PM 35.8558 -104.7700 56° Northeast 444 511 39,000  Level Albuquerque Center
Sat 09:15:23 PM 35.9267 -104.6394 56° Northeast 447 514 39,000  Level Albuquerque Center
Sat 09:16:24 PM 35.9944 -104.5122 57° Northeast 443 510 39,000  Level Albuquerque Center
Sat 09:17:25 PM 36.0625 -104.3864 56° Northeast 437 503 39,000  Level Albuquerque Center
Sat 09:18:26 PM 36.1306 -104.2592 56° Northeast 438 504 39,000  Level Albuquerque Center
Sat 09:19:27 PM 36.1997 -104.1319 56° Northeast 441 507 39,000  Level Albuquerque Center
Sat 09:20:28 PM 36.2675 -104.0053 56° Northeast 437 503 39,000  Level Albuquerque Center
Sat 09:21:29 PM 36.3350 -103.8781 57° Northeast 436 502 39,000  Level Albuquerque Center
Sat 09:22:30 PM 36.4028 -103.7489 57° Northeast 441 507 39,000  Level Albuquerque Center
Sat 09:23:31 PM 36.4714 -103.6197 57° Northeast 443 510 39,000  Level Albuquerque Center
Sat 09:24:32 PM 36.5386 -103.4903 57° Northeast 442 509 39,000  Level Albuquerque Center
Sat 09:25:33 PM 36.6061 -103.3592 57° Northeast 445 512 39,000  Level Albuquerque Center
Sat 09:26:34 PM 36.6761 -103.2228 57° Northeast 448 516 39,000  Level Albuquerque Center
Sat 09:27:35 PM 36.7514 -103.0758 57° Northeast 450 518 39,000  Level Albuquerque Center
Sat 09:28:36 PM 36.8161 -102.9514 57° Northeast 450 518 39,000  Level Albuquerque Center
Sat 09:29:37 PM 36.8800 -102.8261 57° Northeast 449 517 39,000  Level Albuquerque Center
Sat 09:30:38 PM 36.9569 -102.6775 57° Northeast 454 522 39,000  Level Albuquerque Center
Sat 09:31:39 PM 37.0208 -102.5525 57° Northeast 449 517 39,000  Level Albuquerque Center
Sat 09:32:40 PM 37.0886 -102.4156 58° Northeast 447 514 39,000  Level Albuquerque Center
Sat 09:33:41 PM 37.1572 -102.2806 57° Northeast 446 513 39,000  Level Albuquerque Center
Sat 09:34:42 PM 37.2258 -102.1431 58° Northeast 446 513 39,000  Level Albuquerque Center
Sat 09:35:43 PM 37.2894 -102.0178 57° Northeast 446 513 39,000  Level Albuquerque Center
Sat 09:36:44 PM 37.3514 -101.8911 58° Northeast 444 511 39,000  Level Albuquerque Center
Sat 09:37:26 PM 37.4008 -101.7842 60° Northeast 443 510 39,000  Level Kansas City Center
Sat 09:38:27 PM 37.4639 -101.6583 58° Northeast 444 511 39,000  Level Kansas City Center
Sat 09:39:28 PM 37.5258 -101.5322 58° Northeast 443 510 39,000  Level Kansas City Center
Sat 09:40:29 PM 37.5978 -101.3869 58° Northeast 439 505 39,000  Level Kansas City Center
Sat 09:41:29 PM 37.6592 -101.2617 58° Northeast 437 503 39,000  Level Kansas City Center
Sat 09:42:30 PM 37.7128 -101.1356 62° Northeast 437 503 39,000  Level Kansas City Center
Sat 09:43:31 PM 37.7664 -100.9697 68° East 439 505 39,000  Level Kansas City Center
Sat 09:44:32 PM 37.8122 -100.8294 67° East 441 507 39,000  Level Kansas City Center
Sat 09:45:32 PM 37.8558 -100.6908 68° East 441 507 39,000  Level Kansas City Center
Sat 09:46:33 PM 37.9000 -100.5514 68° East 441 507 39,000  Level Kansas City Center
Sat 09:47:34 PM 37.9500 -100.3889 69° East 443 510 39,000  Level Kansas City Center
Sat 09:48:35 PM 37.9939 -100.2511 68° East 442 509 39,000  Level Kansas City Center
Sat 09:49:35 PM 38.0361 -100.1131 69° East 439 505 39,000  Level Kansas City Center
Sat 09:50:36 PM 38.0853 -99.9511 69° East 440 506 39,000  Level Kansas City Center
Sat 09:51:37 PM 38.1289 -99.8144 68° East 438 504 39,000  Level Kansas City Center
Sat 09:52:38 PM 38.1714 -99.6778 68° East 436 502 39,000  Level Kansas City Center
Sat 09:53:38 PM 38.2183 -99.5161 70° East 436 502 39,000  Level Kansas City Center
Sat 09:54:39 PM 38.2586 -99.3839 69° East 439 505 39,000  Level Kansas City Center
Sat 09:55:40 PM 38.3025 -99.2389 69° East 440 506 39,000  Level Kansas City Center
Sat 09:56:40 PM 38.3467 -99.0936 69° East 440 506 39,000  Level Kansas City Center
Sat 09:57:41 PM 38.3908 -98.9464 69° East 441 507 39,000  Level Kansas City Center
Sat 09:58:42 PM 38.4358 -98.7992 69° East 445 512 39,000  Level Kansas City Center
Sat 09:59:42 PM 38.4794 -98.6522 69° East 442 509 39,000  Level Kansas City Center
Sat 10:00:43 PM 38.5236 -98.5064 69° East 438 504 39,000  Level Kansas City Center
Sat 10:01:44 PM 38.5658 -98.3581 70° East 442 509 39,000  Level Kansas City Center
Sat 10:02:44 PM 38.6086 -98.2114 69° East 441 507 39,000  Level Kansas City Center
Sat 10:03:45 PM 38.6522 -98.0631 69° East 442 509 39,000  Level Kansas City Center
Sat 10:04:45 PM 38.6947 -97.9150 70° East 442 509 39,000  Level Kansas City Center
Sat 10:05:46 PM 38.7428 -97.7483 70° East 443 510 39,000  Level Kansas City Center
Sat 10:06:47 PM 38.7831 -97.6072 70° East 441 507 39,000  Level Kansas City Center
Sat 10:07:47 PM 38.8214 -97.4703 70° East 439 505 39,000  Level Kansas City Center
Sat 10:08:48 PM 38.8628 -97.3228 70° East 439 505 39,000  Level Kansas City Center
Sat 10:09:48 PM 38.9042 -97.1758 70° East 437 503 39,000  Level Kansas City Center
Sat 10:10:49 PM 38.9447 -97.0281 71° East 438 504 39,000  Level Kansas City Center
Sat 10:11:49 PM 38.9931 -96.8542 70° East 440 506 39,000  Level Kansas City Center
Sat 10:12:50 PM 39.0331 -96.7117 70° East 441 507 39,000  Level Kansas City Center
Sat 10:13:50 PM 39.0708 -96.5692 71° East 441 507 39,000  Level Kansas City Center
Sat 10:14:51 PM 39.1161 -96.4017 71° East 442 509 39,000  Level Kansas City Center
Sat 10:15:52 PM 39.1544 -96.2583 71° East 441 507 39,000  Level Kansas City Center
Sat 10:16:52 PM 39.1931 -96.1144 71° East 444 511 39,000  Level Kansas City Center
Sat 10:17:52 PM 39.2322 -95.9694 71° East 445 512 39,000  Level Kansas City Center
Sat 10:18:53 PM 39.2772 -95.8000 71° East 446 513 39,000  Level Kansas City Center
Sat 10:19:53 PM 39.3150 -95.6539 71° East 445 512 39,000  Level Kansas City Center
Sat 10:20:54 PM 39.3533 -95.5094 71° East 443 510 39,000  Level Kansas City Center
Sat 10:21:54 PM 39.3950 -95.3486 71° East 439 505 39,000  Level Kansas City Center
Sat 10:22:55 PM 39.4369 -95.1878 71° East 438 504 39,000  Level Kansas City Center
Sat 10:23:55 PM 39.4722 -95.0489 72° East 440 506 39,000  Level Kansas City Center
Sat 10:24:56 PM 39.5094 -94.9042 72° East 441 507 39,000  Level Kansas City Center
Sat 10:25:56 PM 39.5536 -94.7342 71° East 444 511 39,000  Level Kansas City Center
Sat 10:26:57 PM 39.5906 -94.5872 72° East 448 516 39,000  Level Kansas City Center
Sat 10:27:57 PM 39.6272 -94.4406 72° East 447 514 39,000  Level Kansas City Center
Sat 10:28:58 PM 39.6636 -94.2925 72° East 448 516 39,000  Level Kansas City Center
Sat 10:29:58 PM 39.7058 -94.1206 72° East 448 516 39,000  Level Kansas City Center
Sat 10:30:59 PM 39.7431 -93.9736 72° East 447 514 39,000  Level Kansas City Center
Sat 10:31:59 PM 39.7786 -93.8272 72° East 444 511 39,000  Level Kansas City Center
Sat 10:33:00 PM 39.8172 -93.6664 73° East 448 516 39,000  Level Kansas City Center
Sat 10:34:00 PM 39.8544 -93.5150 72° East 444 511 39,000  Level Kansas City Center
Sat 10:35:01 PM 39.8894 -93.3622 73° East 443 510 39,000  Level Kansas City Center
Sat 10:36:01 PM 39.9283 -93.2117 71° East 442 509 39,000  Level Kansas City Center
Sat 10:37:02 PM 39.9631 -93.0592 73° East 443 510 39,000  Level Kansas City Center
Sat 10:38:02 PM 39.9983 -92.9067 73° East 444 511 39,000  Level Kansas City Center
Sat 10:39:03 PM 40.0331 -92.7544 73° East 444 511 39,000  Level Kansas City Center
Sat 10:40:03 PM 40.0747 -92.5764 73° East 443 510 39,000  Level Kansas City Center
Sat 10:41:04 PM 40.1089 -92.4283 73° East 444 511 39,000  Level Kansas City Center
Sat 10:42:05 PM 40.1472 -92.2697 72° East 449 517 39,000  Level Kansas City Center
Sat 10:43:05 PM 40.1811 -92.1144 74° East 451 519 39,000  Level Kansas City Center
Sat 10:44:06 PM 40.2161 -91.9592 74° East 450 518 39,000  Level Kansas City Center
Sat 10:45:06 PM 40.2500 -91.8039 74° East 450 518 39,000  Level Kansas City Center
Sat 10:46:07 PM 40.2856 -91.6456 74° East 455 524 39,000 -843 Level Kansas City Center
Sat 10:47:07 PM 40.3208 -91.4903 73° East 452 520 37,300 -2,132 Descending Kansas City Center
Sat 10:48:08 PM 40.3531 -91.3372 75° East 443 510 34,700 -2,496 Descending Kansas City Center
Sat 10:49:00 PM 40.3856 -91.1906 74° East 435 501 32,600 -1,965 Descending Chicago Center
Sat 10:50:01 PM 40.4183 -91.0467 73° East 416 479 31,000 -793 Descending Chicago Center
Sat 10:51:01 PM 40.4506 -90.9031 74° East 411 473 31,000  Level Chicago Center
Sat 10:52:02 PM 40.5069 -90.7736 60° Northeast 406 467 31,000 -496 Level Chicago Center
Sat 10:53:02 PM 40.5644 -90.6439 60° Northeast 411 473 30,000 -992 Descending Chicago Center
Sat 10:54:03 PM 40.6192 -90.5158 61° Northeast 404 465 29,000 -992 Descending Chicago Center
Sat 10:55:03 PM 40.6753 -90.3886 60° Northeast 403 464 28,000 -992 Descending Chicago Center
Sat 10:56:04 PM 40.7311 -90.2622 60° Northeast 399 459 27,000 -992 Descending Chicago Center
Sat 10:57:04 PM 40.7875 -90.1342 60° Northeast 389 448 26,000 -992 Descending Chicago Center
Sat 10:58:05 PM 40.8386 -90.0131 61° Northeast 382 440 25,000 -992 Descending Chicago Center
Sat 10:59:05 PM 40.8875 -89.8919 62° Northeast 376 433 24,000 -976 Descending Chicago Center
Sat 11:00:08 PM 40.9403 -89.7739 59° Northeast 373 429 23,000 -976 Descending Chicago Center
Sat 11:01:08 PM 40.9903 -89.6572 60° Northeast 367 422 22,000 -1,041 Descending Chicago Center
Sat 11:02:09 PM 41.0411 -89.5367 61° Northeast 358 412 20,900 -1,041 Descending Chicago Center
Sat 11:03:09 PM 41.0889 -89.4244 61° Northeast 350 403 19,900 -992 Descending Chicago Center
Sat 11:04:10 PM 41.1361 -89.3136 60° Northeast 345 397 18,900 -1,033 Descending Chicago Center
Sat 11:05:11 PM 41.1867 -89.1922 61° Northeast 335 386 17,800 -992 Descending Chicago Center
Sat 11:06:11 PM 41.2300 -89.0864 61° Northeast 327 376 16,900 -950 Descending Chicago Center
Sat 11:07:11 PM 41.2742 -88.9808 61° Northeast 327 376 15,900 -992 Descending Chicago Center
Sat 11:08:12 PM 41.3167 -88.8764 62° Northeast 324 373 14,900 -992 Descending Chicago Center
Sat 11:09:12 PM 41.3594 -88.7733 61° Northeast 320 368 13,900 -1,240 Descending Chicago Center
Sat 11:10:13 PM 41.4022 -88.6717 61° Northeast 317 365 12,400 -1,537 Descending Chicago Center
Sat 11:11:13 PM 41.4431 -88.5700 62° Northeast 314 361 10,800 -1,190 Descending Chicago Center
Sat 11:12:14 PM 41.4767 -88.4681 66° East 300 345 10,000 -496 Descending Chicago Center
Sat 11:13:14 PM 41.5094 -88.3644 67° East 301 346 9,800 -645 Descending Chicago Center
Sat 11:14:15 PM 41.5403 -88.2675 67° East 287 330 8,700 -1,140 Descending Chicago Center
Sat 11:15:15 PM 41.5714 -88.1717 67° East 281 323 7,500 -1,190 Descending Chicago Center
Sat 11:16:16 PM 41.6014 -88.0786 67° East 272 313 6,300 -1,240 Descending Chicago Center
Sat 11:17:16 PM 41.6297 -87.9894 67° East 264 304 5,000 -1,041 Descending Chicago Center
Sat 11:18:17 PM 41.6600 -87.9097 63° Northeast 254 292 4,200 -1,091 Descending Chicago Center
Sat 11:19:17 PM 41.7167 -87.8500 38° Northeast 207 238 2,800 -1,238 Descending Chicago TRACON
Sat 11:20:23 PM 41.7500 -87.8000 48° Northeast 158 182 1,600 -950 Descending Chicago TRACON
Sat 11:21:17 PM 41.7667 -87.7667 56° Northeast 132 152 900 -778 Descending Chicago TRACON
Sat 11:23:00 PM 41.7833 -87.7500 North  Level FlightAware Approximate

Login

Don't have an account? Register now (free) for customized features, flight alerts, and more!